Terminal Aerodrome Forecast
Issued by NWS

Home | Current Version | Previous Version | Text Only | Print | Product List | Glossary On
Versions: 1 2 3 4 5 6 7 8 9 10 11 12 13 14
436
FTUS45 KTFX 241724
TAFCTB
TAF
KCTB 241724Z 2418/2518 26034G49KT P6SM FEW080 SCT250
     FM250000 27032G40KT P6SM VCSH SCT060 BKN080
     FM250400 30025G35KT P6SM VCSH OVC040
     FM250600 30020KT P6SM -SHRA SCT020 BKN030
      TEMPO 2506/2510 4SM -SHRA BKN020
     FM251200 30020G29KT P6SM SCT030 BKN070=

USA.gov is the U.S. government's official web portal to all federal, state and local government web resources and services.